the time You need

Lido di Dante MTB

Lido di Dante, Ravenna   Italy

domenica 06 marzo 2016

Percorsi

LUNGO - 37.5 Km

 

CORTO - 28.0 Km

Servizi

ADSCOSTPunti KS Ranking

Chip

Circuiti

Mare e Colline

Ente

UISP

CLASSIFICA

LUNGO - 37.5 Km

Pos Atleta Sesso Cat PosC Team Tempo Media RTime
DNF SALSI PIER LUIGI M M5 - ASD SAMBI TEAM 00:31:14.66 73,00 00:27:24.24
Sq. CODE CHIP WT1339 - M NC - - 00:21:41.54 105,15 00:21:41.54
Sq. VENTURINI MIRKO M M2 - TEAM PASSION FAENTINA 01:14:52.57 30,45 01:11:10.10
DNF LOMBARDI TIZIANO M M7 - GRUPPO TNT 01:02:54.23 36,25 00:59:04.23
DNF TORTOLANI UGO M M4-2 - POL. YOUNG LINE 00:31:28.16 72,46 00:27:45.45
DNF FABBRI DAVIDE M M3 - ASD H3O RACE TEAM 01:00:13.73 37,86 00:56:21.63
DNF ORI MARCELLO M ELMT - ASD OTW RAVENNA 01:04:30.73 35,35 01:00:26.73
1 FIRMIANI MARCO M M2 1 ASD SAMBI TEAM 01:10:29.56 32,35 01:07:13.13
2 SAMBI CHRISTIAN M M3 1 ASD SAMBI TEAM 01:10:29.74 32,35 01:06:46.24
3 GHERARDI ALESSANDRO M ELMT 1 SALINBICI BIKE TEAM RUOTE 01:11:11.64 32,03 01:07:27.14
4 DE LORENZI ENRICO M M1 1 KTM FORTI E LIBERI 01:11:11.81 32,03 01:07:36.81
5 RUFFILLI PAOLO M M2 2 SPACCO ASD 01:11:13.06 32,01 01:07:33.33
6 BUCCI EMANUELE M M1 2 SS FRECCE ROSSE 01:11:13.07 32,01 01:07:50.07
7 ZAMA LORENZO M M1 3 TEAM PASSION FAENTINA 01:11:13.56 32,01 01:07:44.46
8 GALAMINI MAURIZIO M M5 1 BARACCA LUGO CORSA MTB 01:11:13.57 32,01 01:07:44.57
9 LEONI GERMANO M M5 2 TEAM PASSION FAENTINA 01:11:13.65 32,01 01:07:29.29
10 FONTANELLI MATTEO M ELMT 2 TEAM PASSION FAENTINA 01:11:24.06 31,93 01:07:39.39
11 BRAVACCINI MATTEO M M1 4 COMERO BIKE 01:11:26.20 31,92 01:07:59.20
12 FABBRI CHRISTIAN M M3 2 TEAM PASSION FAENTINA 01:11:33.81 31,87 01:08:05.11
13 VENTURELLI ALESSANDRO M M2 3 CICLI CENTER MODENA ASD 01:11:34.06 31,86 01:08:00.06
14 PASINI GIOVANNI M M3 3 KTM FORTI E LIBERI 01:11:37.56 31,84 01:08:07.56
15 CAI SAMUELE M M3 4 MEO VENTURELLI IRIDE MODENA ASD 01:11:37.99 31,84 01:08:11.89
16 FORESTIERI ALESSANDRO M M4 1 DEKA RIDERS 01:12:16.83 31,55 01:08:34.33
17 FERRARI ENRICO M M1 5 SPACCO ASD 01:12:36.06 31,40 01:08:55.55
18 ZANETTI GIANNI M M2 4 TEAM ZANETTI ASD 01:12:36.07 31,40 01:08:55.55
19 CHIARINI LUCA M M2 5 TEAM PASSION FAENTINA 01:12:48.81 31,32 01:09:04.81
20 VANUZZO IURI M M3 5 ASD SAMBI TEAM 01:12:49.07 31,31 01:09:09.09
21 BOVINO MARIO M M4 2 KTM FORTI E LIBERI 01:12:49.56 31,31 01:09:21.56
22 POLVERINO ANDREA M M1 6 KTM FORTI E LIBERI 01:12:53.56 31,28 01:09:03.16
23 SARTONI SAURO M M4 3 ASD SAMBI TEAM 01:14:21.57 30,67 01:10:38.47
24 FOSCHI CRISTIAN M M3 6 BARACCA LUGO CORSA MTB 01:14:22.06 30,66 01:10:59.59
25 FERRIOLI DEVIS M M2 6 TEAM PASSION FAENTINA 01:14:22.07 30,66 01:10:35.35
26 MANIGRASSO GIOVANNI M M4 4 ASD ONLYOFF DUE RUOTE 01:14:22.08 30,66 01:10:40.40
27 CAVALLARI ALESSANDRO M M1 7 TEAM SPARROW 01:14:22.20 30,66 01:10:38.38
28 CAVICCHI CRISTIAN M M3 7 POL. YOUNG LINE 01:14:22.21 30,66 01:10:39.39
29 TAGLIANI MATTEO M M1 8 TEAM BORGHI RACING 01:14:22.22 30,66 01:14:22.22
30 CONFICONI SAMUELE M M3 8 KTM FORTI E LIBERI 01:14:22.57 30,66 01:10:31.47
31 MONTANARI MAURO M M2-2 1 TEAM PASSION FAENTINA 01:14:26.07 30,63 01:10:37.37
32 PUGLISI DANIELE M ELMT 3 ASD BLACK ROAD 01:14:26.18 30,63 01:11:13.18
33 BARBERINI ALESSANDRO M ELMT 4 TEAM NOB JOLLYWEAR 01:14:26.40 30,63 01:10:46.40
34 ANGELICCHIO GIUSEPPE M M3 9 ASD ONLYOFF DUE RUOTE 01:14:28.21 30,62 01:10:43.43
35 MAMBELLI MARCO M M2-2 2 ASD OTW RAVENNA 01:14:42.82 30,52 01:10:47.12
36 DAL RE ELISEO M M3 10 ASD SAMBI TEAM 01:14:52.99 30,45 01:14:52.99
37 PELLEGRINO PARIDE M M4 5 TEAM TORPEDO BIKE 01:15:14.21 30,31 01:11:33.33
38 BRATTI GIANNI M M4 6 GS LELLI BIKE ASD 01:15:14.25 30,31 01:11:24.24
39 FIORINI FABIO M M5 3 KTM FORTI E LIBERI 01:15:18.07 30,28 01:11:35.35
40 ZOLI MATTIA M ELMT 5 SC VELOCIRAPTOR 01:15:18.32 30,28 01:11:45.45
41 CHIARUCCI FABRIZIO M M6 1 ASD SAMBI TEAM 01:15:46.32 30,09 01:12:00.32
42 CARLI FABIO M ELMT 6 TEAM SPARROW 01:15:48.07 30,08 01:12:07.07
43 BOSI FABIO M M2 7 SPECIALISSIMA TEAM BIKE 01:16:07.82 29,95 01:12:21.12
44 CALDERONI DAVIDE M M3 11 ASD SAMBI TEAM 01:16:07.96 29,95 01:12:12.76
45 MURATORI GIAMPAOLO M M4 7 GRUPPO TNT 01:16:08.15 29,95 01:12:20.20
46 ZANCHINI FABIO M M4-2 1 TEAM PASSION FAENTINA 01:16:08.57 29,95 01:12:28.57
47 BABINI GIOVANNI M M6 2 SC VELOCIRAPTOR 01:16:08.76 29,95 01:12:17.26
48 BRUNELLI ENRICO M M3 12 GRUPPO TNT 01:16:08.83 29,95 01:12:21.33
49 PALANCA GIANLUCA M M4 8 SPACCO ASD 01:16:08.96 29,95 01:12:20.26
50 LUBRANO GIORGIO MASSIMO M M2 8 TEAM SPARROW 01:16:15.33 29,90 01:12:27.27
51 BURZACCA ANDREA M M6 3 GS TORPADO SURFING SHOP SPORT PROMOTION 01:16:17.57 29,89 01:12:29.57
52 ZACCARELLI GIUSEPPE M M3 13 TEAM PASSION FAENTINA 01:16:38.82 29,75 01:12:48.22
53 MEDRI FRANCESCO M M5 4 BARACCA LUGO CORSA MTB 01:16:48.07 29,69 01:13:07.07
54 PRUNI PAOLO M M4 9 KTM FORTI E LIBERI 01:16:51.07 29,67 01:12:58.58
55 BABINI STEFANO M M2 9 VITAMINA TEAM 01:16:51.82 29,67 01:16:51.82
56 GIOVANNINI FABIO M M4 10 SAN MARINO RACE TEAM 01:16:52.57 29,66 01:13:21.37
57 GALLEGATI PAOLO M M3 14 ASD SAMBI TEAM 01:17:00.82 29,61 01:13:13.32
58 ALTINI ANDREA M M2-2 3 KTM FORTI E LIBERI 01:17:02.32 29,60 01:13:08.22
59 BALDO RAFFAELE M M4-2 2 TEAM PASSION FAENTINA 01:17:02.33 29,60 01:13:14.23
60 CICOGNANI FABRIZIO M M1 9 180 BPM 01:17:02.82 29,60 01:13:10.82
61 RAVAIOLI MARZIO M M5 5 GRUPPO TNT 01:17:03.07 29,59 01:13:14.14
62 CASCIELLO FABIO M M2 10 BIKE INNOVATION SQUADRA CORSE 01:17:03.82 29,59 01:13:18.32
63 BRIGANTI GIANNI M M5 6 180 BPM 01:17:05.82 29,58 01:13:19.62
64 CAVIOLI DANIELE M M1 10 ASD LE SALINE NATURA E SPORT 01:17:10.66 29,55 01:17:10.66
65 TURCHI FABRIZIO M M4-2 3 KTM FORTI E LIBERI 01:17:14.21 29,52 01:13:25.01
66 MASOTTI IURI M M1 11 TEAM PASSION FAENTINA 01:17:27.07 29,44 01:13:40.07
67 ALEOTTI NICOLA M M3 15 ASD SESSANTALLORA MILANO MARITTIMA 01:17:28.40 29,43 01:13:44.44
68 GRILLI LUCA M M2-2 4 ASDC VALLE DEL CONCA NORDIC WALKING 01:17:36.21 29,38 01:13:45.21
69 MANTOVANI MICHELE M ELMT 7 ASD CICLO ESTENSE MESOLA 01:17:36.99 29,38 01:13:51.49
70 TARABUSI GIULIANO M M4 11 TEAM K-ONE ASD 01:17:40.21 29,36 01:17:40.21
71 MAZZOTTI MICHELE M M1 12 ASD SAMBI TEAM 01:17:46.07 29,32 01:13:56.56
72 CIMATTI ANDREA M M4 12 ASD SAMBI TEAM 01:17:46.26 29,32 01:14:04.04
73 BORDONI PIETRO M M5 7 ASD POLISPORTIVA SAMMAURESE NOB 01:17:46.82 29,32 01:14:01.32
74 PANCISI GABRIELE M M5 8 GRUPPO TNT 01:17:47.82 29,31 01:13:52.32
75 DADI EMILIANO M M4 13 SPECIALISSIMA TEAM BIKE 01:17:51.32 29,29 01:13:58.58
76 PETTAZZONI DAVIDE M M5 9 BAMBANA BIKE 01:17:52.07 29,28 01:14:10.10
77 CAVALLARI ARMANDO M M4 14 TEAM BIKE LAGOSANTO 01:17:54.57 29,27 01:17:49.17
78 BECCI MORENO M M7 1 GRUPPO TNT 01:17:56.07 29,26 01:14:05.05
79 CAVINA GIAMBATTISTA M M5 10 ASD IMOLA BIKE 01:17:56.32 29,26 01:14:03.32
80 BELLINI IVAN M M4 15 BIKE INNOVATION SQUADRA CORSE 01:17:56.42 29,26 01:17:56.42
81 ANCARANI ALESSIO M M1 13 TEAM PASSION FAENTINA 01:18:35.08 29,01 01:14:43.43
82 ORIANI MASSIMO M M5 11 ASD CIRCOLO ARCI MARZENO 01:18:43.47 28,96 01:14:50.50
83 CASADIO CLAUDIO M M4 16 TEAM PASSION FAENTINA 01:18:46.58 28,95 01:15:03.58
84 GUSMAN PARIDE M M3 16 ASD SAMBI TEAM 01:18:46.67 28,95 01:18:46.67
85 CONVERTINO MATTEO M M3 17 SC VELOCIRAPTOR 01:18:46.80 28,95 01:18:46.80
86 PEDROSI CRISTIAN M M3-2 1 ASD BLACK ROAD 01:18:46.86 28,95 01:18:46.86
87 CIMINIELLO FABIO M M1 14 BIKE PASSION TEAM 01:18:46.86 28,95 01:18:46.86
88 PREDIERI GIACOMO M M7 2 BAMBANA BIKE 01:18:47.58 28,94 01:14:55.08
89 MAGRINI STEFANO M M6 4 TEAM PASSION FAENTINA 01:18:50.08 28,92 01:15:06.06
90 SCALA DAVID M M3 18 POLISPORTIVA SAN VITTORE 01:18:50.58 28,92 01:14:57.08
91 PERUGINI DANIELE M M6 5 AS TEAM - FORLI´ 01:18:51.08 28,92 01:15:04.04
92 NANNI MIRKO M M3 19 VITAMINA TEAM 01:18:51.08 28,92 01:18:51.08
93 MARIANI FRANCO M M4 17 ASD DOROBIKE TEAM 01:18:58.83 28,87 01:18:58.83
94 PODESCHI ROBERTO M M4 18 SAN MARINO RACE TEAM 01:19:06.58 28,82 01:19:06.58
95 PAPETTI MIRKO M ELMT 8 ASD SAMBI TEAM 01:19:14.58 28,78 01:15:29.48
96 POLI STEFANO M M6 6 ROMAGNA BIKE GRANDI EVENTI 01:19:20.33 28,74 01:19:20.33
97 COLASUONNO VINCENZO M M4 19 ASD SAMBI TEAM 01:19:20.58 28,74 01:17:43.28
98 BARAVELLI IVAN M ELMT 9 GRUPPO TNT 01:19:38.22 28,63 01:15:43.43
99 PACCAZZOCCO LUCA M M1 15 ASD BIKERS RACING TEAM 01:19:56.58 28,52 01:16:09.58
100 BASSETTI MASSIMO M M6 7 180 BPM 01:20:27.08 28,34 01:16:35.35
101 MAURO EMANUELE M ELMT 10 TEAM PASSION FAENTINA 01:20:27.08 28,34 01:16:38.08
102 BONAVITA ILARIO M M5 12 SPACCO ASD 01:20:34.58 28,30 01:16:48.48
103 BISERNA BRUNO M M4 20 POLISPORTIVA SAN VITTORE - ALFIO TANI 01:20:37.22 28,28 01:16:49.49
104 CICOGNANI LUCA M ELMT 11 BIKE ITAS TESEI ASSICURAZIONI 01:20:39.58 28,27 01:17:08.08
105 CIGNANI ROMANO M M3 20 180 BPM 01:20:41.83 28,26 01:20:41.83
106 GAUDENZI GUGLIELMO M M6 8 ASCD VALLE DEL CONCA 01:20:42.33 28,25 01:16:57.57
107 GRECO MARCO M M4 21 ASD SALINBICI BIKE TEAM RUOTE IN SCIA 01:20:58.58 28,16 01:20:58.58
108 GAVANELLI LORENZO M M2-2 5 POL. YOUNG LINE 01:20:58.83 28,16 01:17:14.83
109 MAESTRI MATTEO M M1 16 ASD CICLO ESTENSE MESOLA 01:21:01.58 28,14 01:17:19.19
110 PARA MASSIMO M M5 13 COMERO BIKE 01:21:06.08 28,11 01:21:06.08
111 AGNOLETTI MARIO M M3-2 2 UISP RAVENNA 01:21:10.08 28,09 01:21:10.08
112 BAGNOLINI ALESSANDRO M M2 11 KTM FORTI E LIBERI 01:21:10.08 28,09 01:21:10.08
113 MESSINA GIUSEPPE M M6 9 BAMBANA BIKE 01:21:10.58 28,09 01:21:10.58
114 MAZZINI MARCO M M4-2 4 BAMBANA BIKE 01:21:10.67 28,09 01:17:37.57
115 PAOLELLA STEFANO M M2 12 ASD OTW RAVENNA 01:21:11.08 28,08 01:21:11.08
116 BRACCIAROLI EMILIO M M7 3 GRUPPO TNT 01:21:11.83 28,08 01:17:19.83
117 BELLETTINI DAVIDE M M2 13 ASDC VALLE DEL CONCA NORDIC WALKING 01:21:18.58 28,04 01:21:18.58
118 SAPORETTI PATRICK M ELMT 12 ASD OTW RAVENNA 01:21:23.33 28,02 01:17:55.33
119 VERIDIANI ALESSANDRO M M4 22 ASD OTW RAVENNA 01:21:35.83 27,95 01:21:35.83
120 MINARDI MARCO M M5 14 TEAM PASSION FAENTINA 01:21:36.58 27,94 01:17:56.58
121 BECCATI SIMONE M M1 17 ASD CICLO ESTENSE MESOLA 01:21:37.58 27,94 01:21:37.58
122 LANDINI LEONARDO M M2 14 CYCLING TEAM BOLOGNA 01:21:37.58 27,94 01:17:40.08
123 SIROTTI MATTEO M M3-2 3 VENTURI ADVENTURE TEAM 01:22:00.58 27,80 01:18:14.08
124 GORDINI MATTEO M M1 18 DEKA RIDERS 01:22:06.83 27,77 01:22:06.83
125 SELVA FEDERICO M M2-2 6 SAN MARINO MTB TEAM 01:22:08.08 27,76 01:22:08.08
126 MONTIRONI GIANCARLO M M7 4 ASD SAMBI TEAM 01:22:09.84 27,75 01:18:16.34
127 SEMIANCHUK HEORHI M ELMT 13 ASD SAMBI TEAM 01:22:11.83 27,74 01:18:21.83
128 TONELLI ROBERTO M M7 5 COMERO BIKE 01:22:12.58 27,74 01:22:12.58
129 ZAPPATA DOMENICO M M1 19 TEAM SPARROW 01:22:13.01 27,73 01:18:17.01
130 CESARI ERNESTINO M M7 6 ASD GREEN DEVILS 01:22:13.22 27,73 01:22:13.22
131 GASTALDI ELISA F MW1 1 TEAM PASSION FAENTINA 01:22:13.83 27,73 01:18:22.13
132 PAZZINI GERARDO M M6 10 ASD POLISPORTIVA COSMOS 01:22:38.08 27,59 01:18:43.43
133 SASDELLI MICHELE M M3 21 BAMBANA BIKE 01:22:38.23 27,59 01:18:44.44
134 ANCARANI GIULIO M M6 11 180 BPM 01:22:59.83 27,48 01:22:59.83
135 CONTRA MAURIZIO M M6 12 TEAM BIKE LAGOSANTO 01:23:00.83 27,47 01:23:00.83
136 BARTOLONI GIANNI M M5 15 SAN MARINO MTB TEAM 01:23:03.23 27,45 01:23:03.23
137 FRANCESCHINI ANDREA M M5 16 TEAM CINGOLANI - SPECIALIZED 01:23:05.22 27,44 01:23:05.22
138 ANTINORI MARCO M M3 22 SAN MARINO RACE TEAM 01:23:05.84 27,44 01:19:43.14
139 BISSIONI LORENZO M M7 7 TEAM TORPEDO BIKE 01:23:06.24 27,44 01:19:22.24
140 BONAIUTI FABIO M M3 23 MTB LA RUPE 01:23:07.09 27,43 01:19:15.09
141 RICCI LUCA M M2 15 MTB LA RUPE 01:23:08.22 27,43 01:19:21.21
142 RIGHETTI PIETRO M M6 13 BAMBANA BIKE 01:23:08.83 27,43 01:23:08.83
143 GAMBELLA DAVID M M4 23 ASD BIKERS RACING TEAM 01:23:16.08 27,38 01:19:29.29
144 FERRI MAURO M M7 8 BAMBANA BIKE 01:23:23.33 27,34 01:19:31.31
145 OTTAVIANI ROBERTO M M6 14 ASD OLIVIERO 01:23:23.83 27,34 01:19:29.13
146 GATTI ALESSANDRO M ELMT 14 ASD OTW RAVENNA 01:23:24.09 27,34 01:19:36.36
147 CIMINIELLO CHRISTIAN M ELMT 15 ASD SAMBI TEAM 01:23:25.08 27,33 01:19:35.35
148 RAVAIOLI LORENZO M M4 24 ASD COTEKINO OFF ROAD 01:23:31.58 27,30 01:23:31.58
149 PAPETTI FRANCESCO M M7 9 ASD SAMBI TEAM 01:23:35.08 27,28 01:19:43.08
150 SAVINO CARMINE M M5 17 TEAM PASSION FAENTINA 01:23:36.08 27,27 01:19:51.51
151 GIAMPRETI PAOLA F MW1 2 GRUPPO TNT 01:23:42.33 27,24 01:23:42.33
152 CINTI GIACOMO M JUN 1 ASD SAMBI TEAM 01:24:42.35 26,92 01:20:55.55
153 GORRIERI RICCARDO M M4 25 ASD VALMARACING TEAM 01:24:44.84 26,91 01:21:21.14
154 BELLAGAMBA MATTIA M M2-2 7 LEPRI DI ROMAGNA 01:24:47.09 26,89 01:20:57.57
155 AMADUCCI ROBERTO M M6 15 180 BPM 01:24:48.24 26,89 01:20:59.59
156 CIMINI MARCO M M2-2 8 ASD TEAM BIKE VALCONCA 01:24:49.09 26,88 01:20:55.55
157 MAESTRI ENRICO M M4 26 ASD CICLO ESTENSE MESOLA 01:24:49.09 26,88 01:24:49.09
158 MAVILLA PAOLO M M6 16 TEAM PASSION FAENTINA 01:24:49.42 26,88 01:20:59.59
159 FIORENTINI FABRIZIO M M3 24 TEAM PASSION FAENTINA 01:24:49.58 26,88 01:20:56.56
160 MANUZZI MIRCO M ELMT 16 GOOD BIKE AS RONCOFREDDESE 01:24:49.59 26,88 01:24:49.59
161 CINTI FRANCO M M6 17 ASD SAMBI TEAM 01:24:51.09 26,87 01:24:51.09
162 MAESTRI CRISTIAN M M1 20 GOOD BIKE AS RONCOFREDDESE 01:24:56.24 26,84 01:20:57.57
163 ARLOTTI MAURIZIO M M5 18 TEAM TORPEDO BIKE 01:24:57.34 26,84 01:24:57.34
164 SAMORI´ ENRICO M ELMT 17 TEAM PASSION FAENTINA 01:24:59.68 26,83 01:21:04.68
165 MORIGI MATTEO M M1 21 TEAM TORPEDO BIKE 01:25:01.09 26,82 01:25:01.09
166 CINI FRANCESCO M M3 25 ASD OTW RAVENNA 01:25:01.99 26,82 01:21:07.79
167 TERZIARI ALBERTO M M5 19 POL. YOUNG LINE 01:25:14.24 26,75 01:25:14.24
168 BELLAGAMBA MICHELE M M1 22 LEPRI DI ROMAGNA 01:25:18.59 26,73 01:25:18.59
169 RINALDINI PAOLO M M4 27 ASD POLISPORTIVA SAMMAURESE NOB 01:25:42.85 26,60 01:25:42.85
170 MACCHEROZZI MARTA F MW2 1 GRUPPO TNT 01:25:50.84 26,56 01:25:50.84
171 GUARDIGLI CHIARA F MW2 2 ASD TEAM ENDURANCE 01:26:14.84 26,44 01:22:20.34
172 BIZZI PATRIZIO M M5 20 TEAM BIKE LAGOSANTO 01:26:17.24 26,42 01:25:48.48
173 AMADASI ENRICO M M7 10 BAMBANA BIKE 01:26:33.24 26,34 01:22:38.38
174 FABBRI MARCO M M3 26 ASD SALINBICI BIKE TEAM RUOTE IN SCIA 01:26:45.24 26,28 01:22:46.46
175 CHILLO TANIA F MW2 3 ASD ONLYOFF DUE RUOTE 01:27:05.24 26,18 01:27:05.24
176 ZANIBONI CARLO M M4 28 MTB LA RUPE 01:27:08.59 26,17 01:23:17.59
177 GARAVINI DAVIDE M M5 21 180 BPM 01:27:46.35 25,98 01:27:46.35
178 GARDINALI GIUSEPPE M M6 18 POL.BERTOLT BRECHT 01:27:47.59 25,97 01:23:56.56
179 TASSINARI MASSIMO M M6 19 ASD CRAL ENRICO MATTEI 01:28:09.84 25,87 01:24:18.34
180 MARINI DIONINO M M5 22 ROWA TEAM 01:28:12.59 25,85 01:24:20.59
181 CAMPEDELLI ROBERTO M M4 29 ASD TEAM ENDURANCE 01:28:16.09 25,83 01:28:16.09
182 BALDININI DANIELA F MW2 4 ASD POLISPORTIVA SAMMAURESE NOB 01:28:17.84 25,83 01:24:29.14
183 GARRONI ENRICO M M1 23 ASD OTW RAVENNA 01:28:27.09 25,78 01:24:59.09
184 GILLI MIRCO M M2 16 POL. SPILAMBERTESE 01:28:27.59 25,78 01:28:27.59
185 GRIECO ALEN M M1 24 TEAM TORPEDO BIKE 01:28:41.84 25,71 01:28:41.84
186 CARIGI CRISTIAN M M3 27 ASDC VALLE DEL CONCA NORDIC WALKING 01:28:55.66 25,64 01:25:39.66
187 MARCHEGGIANI MARCO M M5 23 GS CICLI MATTEONI BIANCHI 01:29:17.84 25,54 01:25:25.25
188 CIMINI LUCIANO M M7 11 ASD TEAM BIKE VALCONCA 01:29:51.69 25,38 01:26:20.49
189 ACCIAI MAURIZIO M M6 20 GRUPPO TNT 01:30:00.10 25,33 01:26:18.18
190 BALDISSERRI PIETRO M M6 21 LEPRI DI ROMAGNA 01:30:08.10 25,30 01:26:13.13
191 MAGALOTTI GIANLUCA M M4 30 SAN MARINO MTB TEAM 01:30:26.85 25,21 01:26:36.15
192 FABBRI DAVIDE M M3 28 ASD SAMBI TEAM 01:30:29.60 25,20 01:26:28.10
193 COLOZZO VINCENZO M M2 17 180 BPM 01:30:36.69 25,17 01:26:50.19
194 FUSCONI ENRICO M M4 31 ASD OTW RAVENNA 01:31:19.60 24,97 01:27:29.60
195 CAPRA LUCIA F MW2 5 TEAM PASSION FAENTINA 01:31:32.10 24,91 01:28:03.03
196 TAROZZI ROBERTO M M4-2 5 TEAM PASSION FAENTINA 01:31:32.60 24,91 01:28:05.60
197 CIORTU MICERA IONUT M M1 25 ASD SALINBICI BIKE TEAM RUOTE IN SCIA 01:31:32.99 24,91 01:27:35.59
198 PAESANI PAOLO M M5 24 ROWA TEAM 01:31:52.25 24,82 01:28:00.00
199 RAVAIOLI GIANCARLO M M7 12 GRUPPO TNT 01:31:52.60 24,82 01:31:52.60
200 TOMASI DANIELE M M2 18 TEAM SPARROW 01:31:54.60 24,81 01:27:57.20
201 CECCOLI TONINO M M6 22 SAN MARINO RACE TEAM 01:32:20.85 24,69 01:30:56.75
202 GAGLIANO CLARA F MW2 6 BAMBANA BIKE 01:32:47.10 24,57 01:28:53.53
203 TOSCHI BENEDETTA F MW1 3 POL. YOUNG LINE 01:32:47.35 24,57 01:28:52.52
204 MARIANI THOMAS M M2 19 GOOD BIKE AS RONCOFREDDESE 01:32:48.60 24,57 01:28:49.10
205 CAVALLI SANDRO M M5 25 ASD SALINBICI BIKE TEAM RUOTE IN SCIA 01:33:50.60 24,30 01:29:54.00
206 NATALI ADRIANO M M5 26 ROMAGNA BIKE GRANDI EVENTI 01:33:53.25 24,29 01:29:53.53
207 BRUNO ANTONIO M M2 20 ASD OTW RAVENNA 01:34:16.10 24,19 01:30:15.15
208 LIVERANI ALESSANDRO M M4 32 TEAM PASSION FAENTINA 01:34:21.85 24,17 01:30:29.65
209 VINABAL JOSE ALEJANDRO M M2 21 ASD SALINBICI BIKE TEAM RUOTE IN SCIA 01:34:21.99 24,17 01:30:25.99
210 CORAZZA PARIDE M M4 33 ASD OTW RAVENNA 01:35:31.86 23,87 01:31:38.66
211 RAVELLI PAOLO M M7 13 ASD OTW RAVENNA 01:35:50.26 23,79 01:31:58.58
212 CORTESI CHRISTIAN M ELMT 18 UISP BASSA ROMAGNA 01:36:33.11 23,61 01:32:29.11
213 MAZZONI LORENZO M ELMT 19 DUE RUOTE FORLI RIDEFORFUN! 01:36:43.36 23,57 01:32:39.36
214 VECCHI DANIELE M M6 23 BD FAST 01:37:32.61 23,38 01:33:37.41
215 GIULIANELLI MARIO M M7 14 TEAM MONDOBICI TECNOPLAST 01:38:38.13 23,12 01:34:44.44
216 LEGA PAOLA F MW2 7 ASD CIRCOLO ARCI MARZENO 01:39:15.11 22,97 01:35:14.14
217 POMA ANDREA M M3 29 TEAM K-ONE ASD 01:40:21.61 22,72 01:36:18.18
218 CHIOCCIOLINI DANIELA F MW2 8 180 BPM 01:40:56.36 22,59 01:36:56.06
219 BOSTRENGHI MARCO M M2 22 GS POLISPORTIVA SIDERMEC FLLI VITALI SEZ CICL 01:42:00.88 22,35 01:38:36.18
220 FOGLI GIULIANO M M1 26 TEAM SPARROW 01:42:05.62 22,33 01:38:07.22
221 CANTONI CLAUDIO M M3 30 TEAM ZANETTI ASD 01:42:48.87 22,18 01:38:52.27
222 GASTALDI CARLO M M6 24 SC VELOCIRAPTOR 01:44:27.87 21,83 01:40:27.07
223 QUERZOLA FRANCESCA F MW1 4 ASD IMOLA BIKE 01:45:33.62 21,60 01:45:33.62
224 GUERRINI EMANUELE M M2 23 TEAM ZANETTI ASD 01:46:18.12 21,45 01:42:29.29
225 CAPECE MATTIA M M1 27 KTM FORTI E LIBERI 01:46:18.87 21,45 01:42:46.77
226 MAZZONI AGOSTINO M M1 28 180 BPM 01:46:19.89 21,45 01:42:39.39
227 MENGOZZI MARIA F MW1 5 ASD LE SALINE NATURA E SPORT 01:46:21.12 21,44 01:42:24.24
228 MAZZONI ALESSANDRO M M1 29 180 BPM 01:46:22.62 21,44 01:42:38.38
229 VIROLI ANTONIO M M7 15 180 BPM 01:46:33.27 21,40 01:42:31.31
230 BALDUCCI ANTONELLA F MW2 9 SC VELOCIRAPTOR 02:04:34.99 18,30 02:00:36.79

CORTO - 28.0 Km

Pos Atleta Sesso Cat PosC Team Tempo Media RTime
1 MAESTRI MASSIMO M ALL 1 TEAM MBM ASD CICLISMO 01:22:38.08 20,33 01:22:38.08
2 TOZZI ALEX M ES 1 INDIVIDUALE 01:45:06.14 15,98 01:45:06.14
3 VALENTINI EMANUELE M ES 2 INDIVIDUALE 01:49:56.13 15,28 01:49:56.13
4 MONTI MATTEO M ES 3 INDIVIDUALE 01:51:38.39 15,05 01:51:38.39